createdAt,value
2019-04-03T00:00:42.526Z,56.90
2019-04-03T00:03:10.280Z,57.40
2019-04-03T00:05:38.075Z,57.30
2019-04-03T00:08:06.392Z,58.70
2019-04-03T00:10:36.007Z,58.40
2019-04-03T00:13:05.074Z,59.70
2019-04-03T00:15:32.847Z,59.90
2019-04-03T00:18:00.651Z,59.30
2019-04-03T00:20:28.474Z,60.40
2019-04-03T00:22:56.324Z,59.50
2019-04-03T00:25:24.234Z,61.00
2019-04-03T00:27:52.458Z,62.90
2019-04-03T00:30:22.489Z,61.40
2019-04-03T00:32:53.162Z,62.40
2019-04-03T00:35:23.209Z,63.20
2019-04-03T00:37:52.883Z,61.80
2019-04-03T00:40:20.776Z,65.00
2019-04-03T00:42:50.550Z,66.10
2019-04-03T00:45:18.385Z,64.80
2019-04-03T00:47:46.108Z,63.00
2019-04-03T00:50:38.692Z,64.80
2019-04-03T00:53:06.445Z,64.00
2019-04-03T00:55:34.209Z,65.10
2019-04-03T00:58:25.513Z,65.30
2019-04-03T01:01:12.696Z,64.80
2019-04-03T01:03:40.836Z,64.10
2019-04-03T01:06:08.796Z,64.80
2019-04-03T01:08:36.681Z,65.30
2019-04-03T01:11:19.593Z,66.50
2019-04-03T01:13:47.361Z,67.20
2019-04-03T01:16:15.179Z,65.50
2019-04-03T01:18:43.000Z,63.90
2019-04-03T01:21:10.846Z,63.60
2019-04-03T01:23:38.673Z,63.90
2019-04-03T01:26:09.411Z,66.50
2019-04-03T01:28:36.232Z,67.50
2019-04-03T01:31:19.379Z,68.00
2019-04-03T01:33:47.256Z,67.70
2019-04-03T01:36:17.227Z,68.60
2019-04-03T01:38:44.827Z,69.10
2019-04-03T01:41:12.736Z,69.10
2019-04-03T01:43:40.523Z,69.60
2019-04-03T01:46:08.331Z,70.40
2019-04-03T01:48:36.077Z,69.90
2019-04-03T01:51:03.866Z,70.00
2019-04-03T01:53:32.698Z,70.00
2019-04-03T01:56:04.272Z,69.80
2019-04-03T01:58:31.274Z,71.60
2019-04-03T02:00:59.207Z,71.60
2019-04-03T02:03:28.489Z,71.60
2019-04-03T02:05:56.259Z,71.60
2019-04-03T02:08:24.016Z,70.40
2019-04-03T02:10:52.004Z,70.20
2019-04-03T02:13:21.083Z,71.60
2019-04-03T02:15:50.756Z,70.40
2019-04-03T02:18:19.072Z,70.60
2019-04-03T02:20:47.145Z,70.30
2019-04-03T02:23:15.088Z,70.20
2019-04-03T02:25:42.942Z,70.10
2019-04-03T02:28:10.706Z,71.40
2019-04-03T02:30:38.670Z,71.40
2019-04-03T02:33:06.461Z,71.40
2019-04-03T02:35:34.221Z,71.30
2019-04-03T02:38:02.002Z,70.90
2019-04-03T02:40:32.545Z,71.50
2019-04-03T02:43:15.382Z,70.60
2019-04-03T02:45:43.481Z,70.50
2019-04-03T02:48:11.351Z,71.40
2019-04-03T02:50:39.131Z,71.40
2019-04-03T02:53:06.893Z,71.40
2019-04-03T02:55:34.660Z,71.40
2019-04-03T02:58:02.361Z,71.40
2019-04-03T03:00:33.112Z,71.50
2019-04-03T03:02:59.818Z,71.30
2019-04-03T03:05:28.885Z,71.50
2019-04-03T03:07:57.004Z,71.50
2019-04-03T03:10:25.099Z,71.50
2019-04-03T03:12:53.104Z,71.40
2019-04-03T03:15:21.386Z,71.40
2019-04-03T03:17:54.568Z,71.90
2019-04-03T03:20:23.391Z,73.20
2019-04-03T03:22:51.809Z,72.70
2019-04-03T03:25:20.065Z,73.20
2019-04-03T03:27:47.846Z,73.90
2019-04-03T03:30:42.700Z,74.50
2019-04-03T03:32:46.069Z,75.00
2019-04-03T03:35:28.042Z,74.60
2019-04-03T03:37:50.705Z,75.60
2019-04-03T03:40:19.318Z,76.60
2019-04-03T03:42:47.633Z,79.40
2019-04-03T03:45:20.618Z,79.00
2019-04-03T03:47:50.085Z,79.50
2019-04-03T03:50:26.253Z,78.80
2019-04-03T03:52:55.129Z,79.60
2019-04-03T03:55:25.511Z,79.50
2019-04-03T03:57:53.521Z,79.90
2019-04-03T04:00:23.614Z,80.00
2019-04-03T04:02:50.996Z,81.60
2019-04-03T04:05:21.440Z,81.60
2019-04-03T04:07:48.835Z,82.20
2019-04-03T04:10:37.714Z,81.80
2019-04-03T04:13:05.808Z,81.50
2019-04-03T04:15:33.827Z,83.90
2019-04-03T04:18:02.814Z,83.80
2019-04-03T04:20:31.168Z,82.80
2019-04-03T04:22:59.808Z,81.70
2019-04-03T04:25:29.762Z,81.30
2019-04-03T04:27:59.162Z,82.00
2019-04-03T04:30:27.670Z,81.50
2019-04-03T04:32:55.545Z,81.90
2019-04-03T04:35:23.385Z,81.80
2019-04-03T04:37:51.202Z,83.80
2019-04-03T04:40:18.921Z,84.10
2019-04-03T04:42:46.900Z,82.60
2019-04-03T04:45:14.658Z,82.30
2019-04-03T04:47:45.784Z,83.60
2019-04-03T04:50:19.802Z,84.30
2019-04-03T04:52:47.529Z,84.20
2019-04-03T04:55:15.346Z,83.90
2019-04-03T04:57:43.230Z,84.50
2019-04-03T05:00:11.262Z,84.40
2019-04-03T05:02:39.308Z,82.90
2019-04-03T05:05:08.923Z,83.60
2019-04-03T05:07:36.879Z,82.80
2019-04-03T05:10:05.839Z,83.50
2019-04-03T05:12:34.256Z,84.70
2019-04-03T05:15:02.237Z,85.20
2019-04-03T05:17:30.085Z,84.70
2019-04-03T05:19:57.835Z,84.80
2019-04-03T05:22:25.655Z,84.70
2019-04-03T05:24:53.421Z,85.50
2019-04-03T05:27:22.399Z,84.00
2019-04-03T05:29:50.233Z,85.20
2019-04-03T05:32:18.006Z,86.70
2019-04-03T05:34:45.828Z,89.60
2019-04-03T05:37:14.980Z,90.00
2019-04-03T05:39:42.940Z,89.40
2019-04-03T05:42:10.798Z,89.90
2019-04-03T05:44:38.703Z,89.30
2019-04-03T05:47:08.118Z,90.00
2019-04-03T05:49:47.178Z,89.40
2019-04-03T05:52:15.647Z,88.90
2019-04-03T05:54:44.580Z,88.70
2019-04-03T05:57:14.057Z,87.70
2019-04-03T05:59:44.148Z,86.90
2019-04-03T06:02:16.206Z,86.80
2019-04-03T06:04:41.928Z,86.40
2019-04-03T06:07:10.035Z,86.40
2019-04-03T06:09:37.860Z,86.80
2019-04-03T06:12:08.353Z,85.10
2019-04-03T06:14:35.471Z,87.40
2019-04-03T06:17:03.225Z,86.40
2019-04-03T06:19:32.539Z,88.00
2019-04-03T06:22:00.724Z,87.60
2019-04-03T06:24:28.516Z,86.30
2019-04-03T06:26:56.322Z,87.10
2019-04-03T06:29:24.129Z,87.00
2019-04-03T06:31:51.959Z,87.10
2019-04-03T06:34:19.787Z,87.00
2019-04-03T06:36:49.777Z,88.80
2019-04-03T06:39:17.558Z,89.20
2019-04-03T06:41:45.769Z,88.00
2019-04-03T06:44:13.597Z,86.90
2019-04-03T06:46:41.415Z,85.80
2019-04-03T06:49:09.223Z,84.60
2019-04-03T06:51:37.034Z,85.20
2019-04-03T06:54:07.194Z,84.30
2019-04-03T06:56:34.729Z,83.60
2019-04-03T06:59:02.537Z,82.00
2019-04-03T07:01:30.561Z,82.20
2019-04-03T07:03:58.531Z,82.20
2019-04-03T07:06:26.560Z,82.20
2019-04-03T07:08:54.475Z,82.00
2019-04-03T07:11:23.932Z,84.00
2019-04-03T07:13:53.951Z,82.00
2019-04-03T07:16:21.674Z,83.30
2019-04-03T07:18:49.491Z,83.50
2019-04-03T07:21:17.364Z,82.40
2019-04-03T07:23:45.178Z,82.90
2019-04-03T07:26:12.991Z,83.30
2019-04-03T07:28:42.253Z,84.70
2019-04-03T07:31:25.440Z,82.40
2019-04-03T07:33:53.187Z,82.70
2019-04-03T07:36:21.144Z,82.00
2019-04-03T07:38:48.921Z,82.20
2019-04-03T07:41:16.687Z,82.20
2019-04-03T07:43:44.754Z,82.10
2019-04-03T07:46:12.627Z,82.20
2019-04-03T07:48:40.440Z,82.10
2019-04-03T07:51:08.471Z,82.20
2019-04-03T07:53:36.317Z,82.00
2019-04-03T07:56:04.196Z,82.20
2019-04-03T07:58:32.629Z,82.30
2019-04-03T08:01:05.988Z,82.70
2019-04-03T08:03:33.793Z,82.40
2019-04-03T08:06:03.250Z,80.50
2019-04-03T08:08:31.448Z,79.70
2019-04-03T08:10:59.759Z,79.80
2019-04-03T08:13:31.211Z,79.20
2019-04-03T08:16:00.163Z,79.20
2019-04-03T08:18:28.575Z,77.20
2019-04-03T08:20:57.634Z,78.10
2019-04-03T08:23:26.098Z,78.30
2019-04-03T08:25:54.753Z,75.60
2019-04-03T08:28:25.543Z,77.70
2019-04-03T08:30:52.569Z,77.00
2019-04-03T08:33:26.215Z,75.70
2019-04-03T08:35:50.051Z,74.60
2019-04-03T08:38:17.846Z,76.30
2019-04-03T08:40:45.862Z,76.40
2019-04-03T08:43:14.137Z,77.70
2019-04-03T08:45:42.100Z,78.60
2019-04-03T08:48:09.850Z,78.80
2019-04-03T08:51:03.494Z,79.50
2019-04-03T08:53:31.648Z,80.20
2019-04-03T08:55:59.496Z,79.00
2019-04-03T08:58:27.290Z,77.70
2019-04-03T09:00:55.317Z,78.00
2019-04-03T09:03:23.765Z,76.70
2019-04-03T09:05:52.332Z,75.80
2019-04-03T09:08:21.196Z,75.90
2019-04-03T09:10:49.298Z,76.70
2019-04-03T09:13:21.870Z,73.70
2019-04-03T09:15:46.783Z,72.50
2019-04-03T09:18:15.129Z,69.40
2019-04-03T09:20:47.954Z,66.70
2019-04-03T09:23:15.818Z,64.60
2019-04-03T09:25:43.838Z,64.60
2019-04-03T09:28:11.863Z,65.90
2019-04-03T09:30:40.124Z,64.30
2019-04-03T09:33:08.067Z,64.30
2019-04-03T09:35:36.627Z,64.20
2019-04-03T09:38:04.411Z,65.50
2019-04-03T09:40:32.712Z,64.70
2019-04-03T09:43:00.456Z,64.70
2019-04-03T09:45:28.687Z,61.30
2019-04-03T09:47:57.013Z,61.30
2019-04-03T09:50:25.330Z,61.60
2019-04-03T09:52:54.899Z,62.90
2019-04-03T09:55:22.867Z,59.70
2019-04-03T09:57:52.669Z,58.60
2019-04-03T10:00:20.630Z,60.90
2019-04-03T10:02:49.174Z,61.70
2019-04-03T10:05:18.356Z,60.70
2019-04-03T10:07:46.185Z,60.90
2019-04-03T10:10:16.953Z,61.00
2019-04-03T10:12:48.073Z,61.10
2019-04-03T10:15:17.962Z,61.00
2019-04-03T10:17:44.933Z,61.40
2019-04-03T10:20:24.282Z,57.40
2019-04-03T10:22:53.997Z,55.40
2019-04-03T10:25:22.631Z,52.80
2019-04-03T10:27:50.441Z,53.40
2019-04-03T10:30:22.362Z,51.50
2019-04-03T10:32:50.409Z,52.10
2019-04-03T10:35:18.393Z,50.00
2019-04-03T10:37:47.104Z,47.10
2019-04-03T10:40:15.827Z,45.80
2019-04-03T10:42:43.597Z,46.50
2019-04-03T10:45:11.703Z,45.70
2019-04-03T10:47:43.314Z,48.50
2019-04-03T10:50:10.682Z,52.90
2019-04-03T10:52:38.567Z,54.40
2019-04-03T10:55:07.397Z,53.90
2019-04-03T10:57:35.500Z,54.50
2019-04-03T11:00:05.451Z,54.20
2019-04-03T11:02:33.277Z,54.10
2019-04-03T11:05:01.151Z,54.20
2019-04-03T11:07:29.202Z,54.20
2019-04-03T11:10:13.369Z,54.00
2019-04-03T11:12:41.604Z,54.00
2019-04-03T11:15:12.544Z,53.90
2019-04-03T11:17:40.594Z,55.00
2019-04-03T11:20:11.022Z,55.10
2019-04-03T11:22:41.578Z,56.60
2019-04-03T11:25:13.950Z,54.20
2019-04-03T11:27:43.567Z,54.40
2019-04-03T11:30:12.406Z,54.80
2019-04-03T11:32:41.674Z,51.10
2019-04-03T11:35:10.596Z,48.50
2019-04-03T11:37:38.443Z,49.30
2019-04-03T11:40:07.585Z,44.10
2019-04-03T11:42:35.458Z,44.40
2019-04-03T11:45:04.883Z,42.10
2019-04-03T11:47:33.243Z,38.90
2019-04-03T11:50:01.116Z,38.70
2019-04-03T11:52:28.915Z,38.20
2019-04-03T11:54:57.080Z,37.00
2019-04-03T11:57:26.910Z,39.20
2019-04-03T11:59:59.840Z,41.00
2019-04-03T12:02:27.605Z,40.60
2019-04-03T12:04:55.442Z,41.40
2019-04-03T12:07:25.128Z,39.20
2019-04-03T12:09:53.247Z,40.90
2019-04-03T12:12:21.081Z,41.10
2019-04-03T12:14:49.625Z,44.00
2019-04-03T12:17:17.962Z,42.00
2019-04-03T12:19:46.205Z,42.60
2019-04-03T12:22:14.418Z,42.60
2019-04-03T12:24:42.209Z,42.30
2019-04-03T12:27:10.001Z,40.50
2019-04-03T12:29:37.811Z,40.30
2019-04-03T12:32:07.938Z,39.80
2019-04-03T12:34:37.582Z,40.30
2019-04-03T12:37:05.016Z,39.30
2019-04-03T12:39:33.035Z,36.10
2019-04-03T12:42:00.802Z,33.00
2019-04-03T12:44:28.758Z,29.90
2019-04-03T12:46:56.810Z,29.40
2019-04-03T12:49:24.579Z,30.00
2019-04-03T12:51:52.511Z,29.90
2019-04-03T12:54:21.122Z,27.10
2019-04-03T12:56:49.623Z,24.60
2019-04-03T12:59:20.352Z,24.00
2019-04-03T13:01:49.233Z,23.50
2019-04-03T13:04:17.598Z,21.00
2019-04-03T13:06:45.622Z,21.70
2019-04-03T13:09:14.077Z,24.50
2019-04-03T13:11:42.028Z,25.60
2019-04-03T13:14:22.053Z,25.80
2019-04-03T13:16:41.516Z,25.90
2019-04-03T13:19:10.741Z,27.20
2019-04-03T13:21:39.825Z,27.30
2019-04-03T13:24:10.709Z,27.10
2019-04-03T13:26:38.177Z,27.20
2019-04-03T13:29:08.191Z,28.60
2019-04-03T13:31:35.703Z,26.90
2019-04-03T13:34:03.544Z,28.10
2019-04-03T13:36:31.384Z,27.00
2019-04-03T13:39:01.260Z,28.30
2019-04-03T13:41:29.003Z,29.50
2019-04-03T13:43:56.793Z,30.70
2019-04-03T13:46:24.616Z,32.90
2019-04-03T13:48:52.862Z,33.50
2019-04-03T13:51:21.053Z,35.30
2019-04-03T13:53:48.961Z,35.10
2019-04-03T13:56:17.264Z,34.70
2019-04-03T13:58:45.168Z,34.70
2019-04-03T14:01:12.998Z,36.30
2019-04-03T14:03:40.920Z,36.50
2019-04-03T14:06:08.726Z,36.60
2019-04-03T14:08:36.551Z,36.50
2019-04-03T14:11:14.410Z,36.50
2019-04-03T14:13:43.640Z,35.50
2019-04-03T14:16:19.954Z,33.00
2019-04-03T14:18:42.325Z,33.70
2019-04-03T14:21:10.786Z,31.80
2019-04-03T14:23:40.639Z,31.90
2019-04-03T14:26:12.595Z,33.00
2019-04-03T14:28:38.622Z,32.70
2019-04-03T14:31:07.192Z,33.10
2019-04-03T14:33:42.952Z,32.40
2019-04-03T14:36:05.070Z,31.60
2019-04-03T14:38:33.622Z,33.00
2019-04-03T14:41:02.127Z,34.00
2019-04-03T14:43:32.965Z,35.60
2019-04-03T14:45:59.596Z,33.00
2019-04-03T14:48:27.660Z,31.90
2019-04-03T14:50:55.574Z,31.40
2019-04-03T14:53:23.503Z,31.40
2019-04-03T14:55:51.334Z,29.60
2019-04-03T14:58:19.129Z,29.80
2019-04-03T15:00:48.615Z,29.70
2019-04-03T15:03:17.014Z,30.80
2019-04-03T15:05:45.426Z,30.20
2019-04-03T15:08:13.328Z,30.10
2019-04-03T15:10:41.079Z,31.50
2019-04-03T15:13:09.051Z,30.70
2019-04-03T15:15:37.124Z,30.70
2019-04-03T15:18:05.439Z,30.70
2019-04-03T15:20:33.954Z,32.00
2019-04-03T15:23:05.238Z,32.40
2019-04-03T15:25:31.715Z,33.20
2019-04-03T15:28:00.388Z,33.00
2019-04-03T15:30:28.535Z,33.40
2019-04-03T15:32:56.289Z,35.70
2019-04-03T15:35:24.323Z,35.60
2019-04-03T15:37:52.340Z,35.50
2019-04-03T15:40:20.814Z,35.20
2019-04-03T15:42:53.761Z,35.40
2019-04-03T15:45:22.457Z,36.50
2019-04-03T15:47:54.047Z,38.10
2019-04-03T15:50:20.768Z,37.50
2019-04-03T15:52:50.360Z,38.60
2019-04-03T15:55:18.630Z,39.60
2019-04-03T15:57:46.759Z,39.30
2019-04-03T16:00:40.010Z,39.50
2019-04-03T16:03:08.766Z,40.00
2019-04-03T16:05:37.222Z,39.50
2019-04-03T16:08:05.679Z,40.10
2019-04-03T16:10:34.373Z,39.60
2019-04-03T16:13:02.176Z,42.20
2019-04-03T16:15:29.970Z,42.10
2019-04-03T16:17:57.741Z,43.30
2019-04-03T16:20:40.716Z,43.40
2019-04-03T16:23:08.469Z,42.10
2019-04-03T16:25:36.243Z,42.70
2019-04-03T16:28:04.119Z,42.40
2019-04-03T16:30:31.991Z,43.20
2019-04-03T16:33:03.092Z,44.20
2019-04-03T16:35:29.483Z,44.20
2019-04-03T16:37:57.964Z,42.70
2019-04-03T16:40:26.765Z,44.30
2019-04-03T16:42:54.592Z,44.20
2019-04-03T16:45:22.947Z,44.20
2019-04-03T16:47:51.754Z,44.00
2019-04-03T16:50:19.932Z,44.10
2019-04-03T16:52:48.345Z,44.50
2019-04-03T16:55:16.862Z,44.80
2019-04-03T16:57:45.624Z,46.20
2019-04-03T17:00:18.740Z,46.20
2019-04-03T17:02:46.557Z,46.70
2019-04-03T17:05:14.735Z,47.30
2019-04-03T17:07:45.158Z,48.40
2019-04-03T17:10:13.059Z,48.60
2019-04-03T17:12:40.902Z,49.20
2019-04-03T17:15:09.759Z,52.30
2019-04-03T17:17:37.706Z,53.30
2019-04-03T17:20:06.985Z,56.40
2019-04-03T17:22:35.046Z,57.70
2019-04-03T17:25:04.878Z,58.90
2019-04-03T17:27:32.646Z,59.50
2019-04-03T17:30:01.041Z,60.40
2019-04-03T17:32:29.918Z,61.80
2019-04-03T17:34:58.794Z,65.60
2019-04-03T17:37:29.676Z,70.30
2019-04-03T17:39:56.615Z,73.10
2019-04-03T17:42:25.908Z,78.30
2019-04-03T17:44:53.888Z,81.40
2019-04-03T17:47:21.718Z,81.30
2019-04-03T17:49:52.966Z,90.10
2019-04-03T17:52:20.799Z,90.00
2019-04-03T17:54:48.593Z,90.80
2019-04-03T17:57:17.550Z,90.70
2019-04-03T17:59:48.864Z,87.90
2019-04-03T18:02:15.642Z,92.50
2019-04-03T18:04:43.704Z,92.80
2019-04-03T18:07:12.217Z,91.00
2019-04-03T18:09:55.259Z,90.50
2019-04-03T18:12:25.859Z,87.40
2019-04-03T18:14:53.643Z,86.70
2019-04-03T18:17:21.662Z,87.10
2019-04-03T18:19:49.446Z,88.70
2019-04-03T18:22:20.055Z,85.80
2019-04-03T18:24:47.075Z,86.90
2019-04-03T18:27:14.929Z,85.50
2019-04-03T18:29:44.783Z,87.20
2019-04-03T18:32:13.627Z,87.60
2019-04-03T18:34:48.416Z,88.10
2019-04-03T18:37:14.948Z,87.60
2019-04-03T18:39:42.829Z,87.90
2019-04-03T18:42:10.917Z,86.40
2019-04-03T18:44:38.743Z,86.00
2019-04-03T18:47:07.219Z,87.40
2019-04-03T18:49:35.490Z,85.30
2019-04-03T18:52:03.359Z,85.30
2019-04-03T18:54:31.215Z,87.30
2019-04-03T18:56:59.025Z,85.20
2019-04-03T18:59:26.829Z,85.30
2019-04-03T19:01:54.719Z,83.00
2019-04-03T19:04:22.566Z,83.50
2019-04-03T19:06:50.476Z,84.40
2019-04-03T19:09:21.059Z,84.60
2019-04-03T19:11:48.226Z,89.50
2019-04-03T19:14:32.392Z,87.20
2019-04-03T19:16:51.459Z,89.70
2019-04-03T19:19:16.545Z,90.00
2019-04-03T19:21:45.107Z,88.60
2019-04-03T19:24:12.993Z,90.00
2019-04-03T19:26:40.867Z,88.10
2019-04-03T19:29:08.699Z,89.00
2019-04-03T19:31:39.821Z,88.00
2019-04-03T19:34:06.343Z,89.90
2019-04-03T19:36:34.232Z,87.60
2019-04-03T19:39:04.848Z,88.30
2019-04-03T19:41:34.086Z,87.60
2019-04-03T19:44:01.988Z,88.50
2019-04-03T19:46:29.859Z,89.60
2019-04-03T19:48:57.800Z,88.40
2019-04-03T19:51:25.649Z,88.50
2019-04-03T19:53:59.096Z,88.50
2019-04-03T19:56:25.991Z,88.40
2019-04-03T19:58:54.315Z,87.50
2019-04-03T20:01:23.966Z,88.00
2019-04-03T20:03:51.891Z,87.40
2019-04-03T20:06:22.528Z,87.40
2019-04-03T20:08:49.487Z,87.60
2019-04-03T20:11:20.140Z,88.10
2019-04-03T20:13:47.922Z,87.40
2019-04-03T20:16:15.692Z,88.00
2019-04-03T20:18:43.515Z,87.50
2019-04-03T20:21:15.018Z,87.80
2019-04-03T20:23:42.462Z,89.00
2019-04-03T20:26:10.883Z,89.40
2019-04-03T20:28:38.632Z,89.60
2019-04-03T20:31:06.414Z,87.70
2019-04-03T20:33:34.240Z,88.40
2019-04-03T20:36:02.057Z,89.50
2019-04-03T20:38:29.797Z,88.40
2019-04-03T20:41:12.685Z,88.60
2019-04-03T20:43:42.698Z,89.50
2019-04-03T20:46:10.166Z,88.00
2019-04-03T20:48:38.026Z,86.70
2019-04-03T20:51:08.835Z,87.60
2019-04-03T20:53:35.559Z,86.60
2019-04-03T20:56:03.288Z,87.70
2019-04-03T20:58:31.095Z,85.70
2019-04-03T21:01:06.874Z,87.20
2019-04-03T21:03:28.653Z,87.70
2019-04-03T21:05:56.425Z,87.90
2019-04-03T21:08:24.791Z,87.30
2019-04-03T21:10:53.883Z,88.40
2019-04-03T21:13:21.659Z,88.50
2019-04-03T21:15:52.104Z,89.00
2019-04-03T21:18:20.661Z,90.00
2019-04-03T21:20:48.755Z,88.10
2019-04-03T21:23:16.573Z,88.40
2019-04-03T21:25:44.308Z,87.70
2019-04-03T21:28:12.037Z,87.80
2019-04-03T21:30:39.822Z,87.40
2019-04-03T21:33:07.612Z,87.60
2019-04-03T21:35:35.866Z,86.90
2019-04-03T21:38:03.746Z,85.40
2019-04-03T21:40:31.614Z,85.20
2019-04-03T21:42:59.431Z,85.60
2019-04-03T21:45:27.171Z,86.20
2019-04-03T21:47:55.938Z,86.40
2019-04-03T21:50:23.895Z,85.40
2019-04-03T21:52:53.492Z,85.40
2019-04-03T21:55:21.373Z,86.20
2019-04-03T21:57:49.133Z,86.30
2019-04-03T22:00:55.375Z,86.20
2019-04-03T22:03:23.209Z,84.60
2019-04-03T22:05:51.014Z,86.50
2019-04-03T22:08:18.779Z,85.50
2019-04-03T22:10:57.398Z,84.60
2019-04-03T22:13:25.191Z,85.80
2019-04-03T22:15:52.946Z,86.40
2019-04-03T22:18:23.499Z,86.30
2019-04-03T22:20:50.398Z,86.00
2019-04-03T22:23:18.215Z,87.00
2019-04-03T22:25:45.987Z,86.20
2019-04-03T22:28:14.082Z,85.60
2019-04-03T22:30:41.950Z,85.20
2019-04-03T22:33:09.764Z,85.90
2019-04-03T22:35:37.549Z,85.40
2019-04-03T22:38:06.084Z,84.60
2019-04-03T22:40:40.741Z,84.60
2019-04-03T22:43:09.032Z,84.60
2019-04-03T22:45:36.805Z,84.00
2019-04-03T22:48:04.586Z,83.50
2019-04-03T22:50:33.454Z,83.60
2019-04-03T22:53:02.635Z,84.00
2019-04-03T22:55:30.460Z,83.00
2019-04-03T22:57:58.218Z,84.40
2019-04-03T23:00:26.338Z,84.30
2019-04-03T23:02:54.303Z,83.30
2019-04-03T23:05:22.029Z,83.40
2019-04-03T23:07:51.766Z,83.90
2019-04-03T23:10:19.634Z,84.60
2019-04-03T23:12:47.455Z,84.30
2019-04-03T23:15:15.225Z,83.80
2019-04-03T23:17:44.809Z,84.30
2019-04-03T23:20:12.946Z,84.20
2019-04-03T23:22:40.812Z,84.30
2019-04-03T23:25:08.616Z,83.40
2019-04-03T23:27:36.418Z,82.80
2019-04-03T23:30:34.677Z,83.20
2019-04-03T23:33:02.491Z,82.00
2019-04-03T23:35:30.305Z,82.70
2019-04-03T23:37:58.110Z,82.50
2019-04-03T23:40:25.972Z,83.10
2019-04-03T23:42:54.139Z,83.10
2019-04-03T23:45:23.538Z,82.20
2019-04-03T23:47:51.348Z,82.90
2019-04-03T23:50:52.431Z,81.70
2019-04-03T23:53:19.483Z,81.50
2019-04-03T23:55:47.253Z,82.10
2019-04-03T23:58:15.065Z,82.00
